sensor_id;sensor_type;location;lat;lon;timestamp;P1;durP1;ratioP1;P2;durP2;ratioP2
9334;SDS011;4706;41.844;26.082;2022-07-29T00:01:17;3.60;;;3.33;;
9334;SDS011;4706;41.844;26.082;2022-07-29T00:03:43;4.95;;;3.25;;
9334;SDS011;4706;41.844;26.082;2022-07-29T00:06:08;6.60;;;3.22;;
9334;SDS011;4706;41.844;26.082;2022-07-29T00:08:34;3.85;;;3.47;;
9334;SDS011;4706;41.844;26.082;2022-07-29T00:11:00;4.40;;;3.35;;
9334;SDS011;4706;41.844;26.082;2022-07-29T00:13:25;4.82;;;3.55;;
9334;SDS011;4706;41.844;26.082;2022-07-29T00:15:51;5.85;;;3.40;;
9334;SDS011;4706;41.844;26.082;2022-07-29T00:18:17;4.45;;;3.13;;
9334;SDS011;4706;41.844;26.082;2022-07-29T00:20:42;3.50;;;3.20;;
9334;SDS011;4706;41.844;26.082;2022-07-29T00:23:08;3.67;;;3.38;;
9334;SDS011;4706;41.844;26.082;2022-07-29T00:25:34;4.10;;;3.60;;
9334;SDS011;4706;41.844;26.082;2022-07-29T00:27:59;5.05;;;3.50;;
9334;SDS011;4706;41.844;26.082;2022-07-29T00:30:25;4.35;;;3.72;;
9334;SDS011;4706;41.844;26.082;2022-07-29T00:32:50;4.35;;;3.55;;
9334;SDS011;4706;41.844;26.082;2022-07-29T00:35:16;3.95;;;3.40;;
9334;SDS011;4706;41.844;26.082;2022-07-29T00:38:00;6.25;;;4.07;;
9334;SDS011;4706;41.844;26.082;2022-07-29T00:40:25;4.18;;;3.80;;
9334;SDS011;4706;41.844;26.082;2022-07-29T00:42:51;4.03;;;3.60;;
9334;SDS011;4706;41.844;26.082;2022-07-29T00:45:18;4.55;;;3.78;;
9334;SDS011;4706;41.844;26.082;2022-07-29T00:47:44;4.70;;;3.60;;
9334;SDS011;4706;41.844;26.082;2022-07-29T00:50:10;3.92;;;3.63;;
9334;SDS011;4706;41.844;26.082;2022-07-29T00:52:38;4.55;;;4.00;;
9334;SDS011;4706;41.844;26.082;2022-07-29T00:55:06;4.20;;;3.90;;
9334;SDS011;4706;41.844;26.082;2022-07-29T00:57:34;5.13;;;3.58;;
9334;SDS011;4706;41.844;26.082;2022-07-29T01:00:01;5.93;;;3.90;;
9334;SDS011;4706;41.844;26.082;2022-07-29T01:02:31;4.03;;;3.70;;
9334;SDS011;4706;41.844;26.082;2022-07-29T01:04:57;4.43;;;3.50;;
9334;SDS011;4706;41.844;26.082;2022-07-29T01:07:23;4.40;;;4.10;;
9334;SDS011;4706;41.844;26.082;2022-07-29T01:09:50;4.18;;;3.78;;
9334;SDS011;4706;41.844;26.082;2022-07-29T01:12:18;4.30;;;3.83;;
9334;SDS011;4706;41.844;26.082;2022-07-29T01:14:48;4.40;;;4.00;;
9334;SDS011;4706;41.844;26.082;2022-07-29T01:20:05;4.63;;;4.22;;
9334;SDS011;4706;41.844;26.082;2022-07-29T01:31:10;4.40;;;3.92;;
9334;SDS011;4706;41.844;26.082;2022-07-29T01:33:41;4.53;;;4.20;;
9334;SDS011;4706;41.844;26.082;2022-07-29T01:36:22;4.25;;;3.85;;
9334;SDS011;4706;41.844;26.082;2022-07-29T01:39:04;4.53;;;4.13;;
9334;SDS011;4706;41.844;26.082;2022-07-29T01:41:32;4.50;;;4.20;;
9334;SDS011;4706;41.844;26.082;2022-07-29T01:44:12;4.28;;;3.97;;
9334;SDS011;4706;41.844;26.082;2022-07-29T01:46:44;6.57;;;4.68;;
9334;SDS011;4706;41.844;26.082;2022-07-29T01:49:17;4.63;;;4.22;;
9334;SDS011;4706;41.844;26.082;2022-07-29T01:51:51;5.05;;;4.38;;
9334;SDS011;4706;41.844;26.082;2022-07-29T01:57:29;4.28;;;3.95;;
9334;SDS011;4706;41.844;26.082;2022-07-29T01:59:58;4.55;;;4.15;;
9334;SDS011;4706;41.844;26.082;2022-07-29T02:02:26;5.35;;;4.90;;
9334;SDS011;4706;41.844;26.082;2022-07-29T02:04:55;4.63;;;4.32;;
9334;SDS011;4706;41.844;26.082;2022-07-29T02:07:23;6.43;;;4.40;;
9334;SDS011;4706;41.844;26.082;2022-07-29T02:09:51;4.75;;;4.30;;
9334;SDS011;4706;41.844;26.082;2022-07-29T02:12:19;4.65;;;4.25;;
9334;SDS011;4706;41.844;26.082;2022-07-29T02:14:50;4.82;;;4.32;;
9334;SDS011;4706;41.844;26.082;2022-07-29T02:17:23;4.57;;;4.10;;
9334;SDS011;4706;41.844;26.082;2022-07-29T02:19:53;4.78;;;4.20;;
9334;SDS011;4706;41.844;26.082;2022-07-29T02:22:23;4.88;;;4.00;;
9334;SDS011;4706;41.844;26.082;2022-07-29T02:24:50;4.15;;;3.75;;
9334;SDS011;4706;41.844;26.082;2022-07-29T02:27:17;5.10;;;4.60;;
9334;SDS011;4706;41.844;26.082;2022-07-29T02:29:46;4.50;;;4.10;;
9334;SDS011;4706;41.844;26.082;2022-07-29T02:32:14;4.40;;;4.00;;
9334;SDS011;4706;41.844;26.082;2022-07-29T02:34:41;6.15;;;4.13;;
9334;SDS011;4706;41.844;26.082;2022-07-29T02:37:09;4.70;;;4.22;;
9334;SDS011;4706;41.844;26.082;2022-07-29T02:39:36;5.70;;;4.38;;
9334;SDS011;4706;41.844;26.082;2022-07-29T02:42:05;5.72;;;4.50;;
9334;SDS011;4706;41.844;26.082;2022-07-29T02:44:35;4.78;;;4.30;;
9334;SDS011;4706;41.844;26.082;2022-07-29T02:49:39;7.63;;;4.35;;
9334;SDS011;4706;41.844;26.082;2022-07-29T02:52:16;4.75;;;4.35;;
9334;SDS011;4706;41.844;26.082;2022-07-29T02:54:55;4.95;;;4.47;;
9334;SDS011;4706;41.844;26.082;2022-07-29T02:59:52;4.72;;;4.32;;
9334;SDS011;4706;41.844;26.082;2022-07-29T03:02:22;5.70;;;4.28;;
9334;SDS011;4706;41.844;26.082;2022-07-29T03:04:50;4.82;;;4.32;;
9334;SDS011;4706;41.844;26.082;2022-07-29T03:07:18;5.05;;;4.65;;
9334;SDS011;4706;41.844;26.082;2022-07-29T03:09:45;4.57;;;4.18;;
9334;SDS011;4706;41.844;26.082;2022-07-29T03:12:12;5.88;;;4.85;;
9334;SDS011;4706;41.844;26.082;2022-07-29T03:14:38;6.32;;;4.80;;
9334;SDS011;4706;41.844;26.082;2022-07-29T03:17:04;5.07;;;4.68;;
9334;SDS011;4706;41.844;26.082;2022-07-29T03:19:30;6.20;;;4.40;;
9334;SDS011;4706;41.844;26.082;2022-07-29T03:21:57;5.22;;;4.70;;
9334;SDS011;4706;41.844;26.082;2022-07-29T03:24:24;4.88;;;4.47;;
9334;SDS011;4706;41.844;26.082;2022-07-29T03:26:51;9.75;;;4.55;;
9334;SDS011;4706;41.844;26.082;2022-07-29T03:29:16;6.03;;;4.53;;
9334;SDS011;4706;41.844;26.082;2022-07-29T03:31:42;5.10;;;4.57;;
9334;SDS011;4706;41.844;26.082;2022-07-29T03:34:07;7.05;;;4.93;;
9334;SDS011;4706;41.844;26.082;2022-07-29T03:36:33;5.72;;;4.65;;
9334;SDS011;4706;41.844;26.082;2022-07-29T03:38:59;5.55;;;4.97;;
9334;SDS011;4706;41.844;26.082;2022-07-29T03:41:27;6.60;;;4.65;;
9334;SDS011;4706;41.844;26.082;2022-07-29T03:43:53;6.28;;;4.78;;
9334;SDS011;4706;41.844;26.082;2022-07-29T03:46:22;8.85;;;5.20;;
9334;SDS011;4706;41.844;26.082;2022-07-29T03:48:52;6.18;;;4.50;;
9334;SDS011;4706;41.844;26.082;2022-07-29T03:51:23;6.93;;;4.78;;
9334;SDS011;4706;41.844;26.082;2022-07-29T03:53:50;5.20;;;4.70;;
9334;SDS011;4706;41.844;26.082;2022-07-29T03:56:16;5.13;;;4.65;;
9334;SDS011;4706;41.844;26.082;2022-07-29T03:58:46;5.32;;;4.72;;
9334;SDS011;4706;41.844;26.082;2022-07-29T04:01:15;6.80;;;4.25;;
9334;SDS011;4706;41.844;26.082;2022-07-29T04:03:43;5.40;;;4.13;;
9334;SDS011;4706;41.844;26.082;2022-07-29T04:06:11;6.38;;;5.28;;
9334;SDS011;4706;41.844;26.082;2022-07-29T04:08:37;7.22;;;4.32;;
9334;SDS011;4706;41.844;26.082;2022-07-29T04:11:03;5.72;;;4.50;;
9334;SDS011;4706;41.844;26.082;2022-07-29T04:13:30;6.30;;;4.50;;
9334;SDS011;4706;41.844;26.082;2022-07-29T04:15:57;6.25;;;4.65;;
9334;SDS011;4706;41.844;26.082;2022-07-29T04:18:23;6.93;;;4.70;;
9334;SDS011;4706;41.844;26.082;2022-07-29T04:20:49;5.47;;;4.70;;
9334;SDS011;4706;41.844;26.082;2022-07-29T04:23:15;6.18;;;4.63;;
9334;SDS011;4706;41.844;26.082;2022-07-29T04:25:41;5.00;;;4.50;;
9334;SDS011;4706;41.844;26.082;2022-07-29T04:28:07;5.25;;;4.63;;
9334;SDS011;4706;41.844;26.082;2022-07-29T04:30:34;6.07;;;4.53;;
9334;SDS011;4706;41.844;26.082;2022-07-29T04:33:01;4.70;;;4.30;;
9334;SDS011;4706;41.844;26.082;2022-07-29T04:35:29;7.90;;;4.50;;
9334;SDS011;4706;41.844;26.082;2022-07-29T04:37:54;7.35;;;4.57;;
9334;SDS011;4706;41.844;26.082;2022-07-29T04:40:20;5.05;;;4.55;;
9334;SDS011;4706;41.844;26.082;2022-07-29T04:42:45;10.30;;;4.65;;
9334;SDS011;4706;41.844;26.082;2022-07-29T04:45:11;8.32;;;5.65;;
9334;SDS011;4706;41.844;26.082;2022-07-29T04:47:36;7.28;;;4.85;;
9334;SDS011;4706;41.844;26.082;2022-07-29T04:50:02;12.18;;;5.60;;
9334;SDS011;4706;41.844;26.082;2022-07-29T04:52:28;5.93;;;5.00;;
9334;SDS011;4706;41.844;26.082;2022-07-29T04:54:54;8.10;;;5.03;;
9334;SDS011;4706;41.844;26.082;2022-07-29T04:57:19;7.72;;;5.00;;
9334;SDS011;4706;41.844;26.082;2022-07-29T04:59:45;8.02;;;5.68;;
9334;SDS011;4706;41.844;26.082;2022-07-29T05:02:10;7.10;;;5.25;;
9334;SDS011;4706;41.844;26.082;2022-07-29T05:04:36;9.27;;;6.00;;
9334;SDS011;4706;41.844;26.082;2022-07-29T05:07:01;9.55;;;6.18;;
9334;SDS011;4706;41.844;26.082;2022-07-29T05:09:27;6.53;;;5.82;;
9334;SDS011;4706;41.844;26.082;2022-07-29T05:11:52;14.77;;;7.68;;
9334;SDS011;4706;41.844;26.082;2022-07-29T05:14:18;6.68;;;5.60;;
9334;SDS011;4706;41.844;26.082;2022-07-29T05:16:44;6.93;;;5.95;;
9334;SDS011;4706;41.844;26.082;2022-07-29T05:19:09;8.13;;;5.60;;
9334;SDS011;4706;41.844;26.082;2022-07-29T05:21:35;8.55;;;7.70;;
9334;SDS011;4706;41.844;26.082;2022-07-29T05:24:00;9.45;;;6.50;;
9334;SDS011;4706;41.844;26.082;2022-07-29T05:26:26;9.57;;;6.57;;
9334;SDS011;4706;41.844;26.082;2022-07-29T05:28:51;11.35;;;6.30;;
9334;SDS011;4706;41.844;26.082;2022-07-29T05:31:18;9.15;;;6.07;;
9334;SDS011;4706;41.844;26.082;2022-07-29T05:33:44;8.50;;;5.88;;
9334;SDS011;4706;41.844;26.082;2022-07-29T05:36:10;11.65;;;6.35;;
9334;SDS011;4706;41.844;26.082;2022-07-29T05:38:36;6.05;;;5.55;;
9334;SDS011;4706;41.844;26.082;2022-07-29T05:41:05;7.03;;;5.45;;
9334;SDS011;4706;41.844;26.082;2022-07-29T05:43:31;11.00;;;6.00;;
9334;SDS011;4706;41.844;26.082;2022-07-29T05:45:57;9.80;;;5.90;;
9334;SDS011;4706;41.844;26.082;2022-07-29T05:48:22;7.00;;;5.50;;
9334;SDS011;4706;41.844;26.082;2022-07-29T05:50:48;6.10;;;5.40;;
9334;SDS011;4706;41.844;26.082;2022-07-29T05:53:14;8.13;;;6.05;;
9334;SDS011;4706;41.844;26.082;2022-07-29T05:55:39;6.80;;;6.05;;
9334;SDS011;4706;41.844;26.082;2022-07-29T05:58:05;7.32;;;5.53;;
9334;SDS011;4706;41.844;26.082;2022-07-29T06:00:30;8.00;;;4.97;;
9334;SDS011;4706;41.844;26.082;2022-07-29T06:02:56;5.63;;;4.50;;
9334;SDS011;4706;41.844;26.082;2022-07-29T06:05:22;5.63;;;4.38;;
9334;SDS011;4706;41.844;26.082;2022-07-29T06:07:48;5.93;;;4.88;;
9334;SDS011;4706;41.844;26.082;2022-07-29T06:10:13;8.70;;;4.88;;
9334;SDS011;4706;41.844;26.082;2022-07-29T06:12:39;7.15;;;4.70;;
9334;SDS011;4706;41.844;26.082;2022-07-29T06:15:05;6.82;;;4.82;;
9334;SDS011;4706;41.844;26.082;2022-07-29T06:17:31;7.13;;;6.63;;
9334;SDS011;4706;41.844;26.082;2022-07-29T06:19:57;6.72;;;5.75;;
9334;SDS011;4706;41.844;26.082;2022-07-29T06:22:22;8.65;;;4.20;;
9334;SDS011;4706;41.844;26.082;2022-07-29T06:24:47;4.63;;;4.30;;
9334;SDS011;4706;41.844;26.082;2022-07-29T06:27:13;7.85;;;5.03;;
9334;SDS011;4706;41.844;26.082;2022-07-29T06:29:38;6.85;;;4.50;;
9334;SDS011;4706;41.844;26.082;2022-07-29T06:32:04;6.40;;;5.22;;
9334;SDS011;4706;41.844;26.082;2022-07-29T06:34:30;4.90;;;4.43;;
9334;SDS011;4706;41.844;26.082;2022-07-29T06:36:55;7.55;;;4.53;;
9334;SDS011;4706;41.844;26.082;2022-07-29T06:39:21;5.00;;;4.25;;
9334;SDS011;4706;41.844;26.082;2022-07-29T06:41:47;6.18;;;4.13;;
9334;SDS011;4706;41.844;26.082;2022-07-29T06:44:16;7.25;;;4.45;;
9334;SDS011;4706;41.844;26.082;2022-07-29T06:46:43;6.57;;;5.40;;
9334;SDS011;4706;41.844;26.082;2022-07-29T06:49:09;9.55;;;4.35;;
9334;SDS011;4706;41.844;26.082;2022-07-29T06:51:35;9.63;;;5.15;;
9334;SDS011;4706;41.844;26.082;2022-07-29T06:54:01;6.28;;;4.88;;
9334;SDS011;4706;41.844;26.082;2022-07-29T06:56:27;4.88;;;4.05;;
9334;SDS011;4706;41.844;26.082;2022-07-29T06:58:52;11.23;;;4.20;;
9334;SDS011;4706;41.844;26.082;2022-07-29T07:01:18;17.65;;;6.40;;
9334;SDS011;4706;41.844;26.082;2022-07-29T07:03:45;9.77;;;4.93;;
9334;SDS011;4706;41.844;26.082;2022-07-29T07:06:10;10.15;;;4.30;;
9334;SDS011;4706;41.844;26.082;2022-07-29T07:08:36;30.35;;;7.78;;
9334;SDS011;4706;41.844;26.082;2022-07-29T07:11:01;10.32;;;5.60;;
9334;SDS011;4706;41.844;26.082;2022-07-29T07:13:27;9.20;;;6.35;;
9334;SDS011;4706;41.844;26.082;2022-07-29T07:15:56;8.93;;;4.70;;
9334;SDS011;4706;41.844;26.082;2022-07-29T07:18:22;5.85;;;5.00;;
9334;SDS011;4706;41.844;26.082;2022-07-29T07:20:48;7.30;;;4.93;;
9334;SDS011;4706;41.844;26.082;2022-07-29T07:23:14;4.60;;;4.30;;
9334;SDS011;4706;41.844;26.082;2022-07-29T07:25:39;8.02;;;4.40;;
9334;SDS011;4706;41.844;26.082;2022-07-29T07:28:05;10.68;;;5.45;;
9334;SDS011;4706;41.844;26.082;2022-07-29T07:30:30;5.07;;;4.55;;
9334;SDS011;4706;41.844;26.082;2022-07-29T07:32:56;9.50;;;4.93;;
9334;SDS011;4706;41.844;26.082;2022-07-29T07:35:21;7.82;;;4.45;;
9334;SDS011;4706;41.844;26.082;2022-07-29T07:37:47;5.18;;;4.43;;
9334;SDS011;4706;41.844;26.082;2022-07-29T07:40:12;7.15;;;4.60;;
9334;SDS011;4706;41.844;26.082;2022-07-29T07:42:39;9.25;;;4.25;;
9334;SDS011;4706;41.844;26.082;2022-07-29T07:45:06;6.25;;;5.72;;
9334;SDS011;4706;41.844;26.082;2022-07-29T07:47:34;5.70;;;5.25;;
9334;SDS011;4706;41.844;26.082;2022-07-29T07:50:00;7.75;;;6.00;;
9334;SDS011;4706;41.844;26.082;2022-07-29T07:52:26;4.68;;;4.28;;
9334;SDS011;4706;41.844;26.082;2022-07-29T07:54:51;4.70;;;4.30;;
9334;SDS011;4706;41.844;26.082;2022-07-29T07:57:18;5.95;;;4.13;;
9334;SDS011;4706;41.844;26.082;2022-07-29T07:59:43;6.78;;;4.40;;
9334;SDS011;4706;41.844;26.082;2022-07-29T08:02:09;6.05;;;4.72;;
9334;SDS011;4706;41.844;26.082;2022-07-29T08:04:35;4.05;;;3.75;;
9334;SDS011;4706;41.844;26.082;2022-07-29T08:07:01;4.38;;;3.97;;
9334;SDS011;4706;41.844;26.082;2022-07-29T08:09:28;4.45;;;4.10;;
9334;SDS011;4706;41.844;26.082;2022-07-29T08:11:54;7.72;;;3.70;;
9334;SDS011;4706;41.844;26.082;2022-07-29T08:14:21;4.40;;;3.75;;
9334;SDS011;4706;41.844;26.082;2022-07-29T08:16:46;3.63;;;3.33;;
9334;SDS011;4706;41.844;26.082;2022-07-29T08:19:12;4.05;;;3.63;;
9334;SDS011;4706;41.844;26.082;2022-07-29T08:21:38;3.92;;;3.50;;
9334;SDS011;4706;41.844;26.082;2022-07-29T08:24:04;4.03;;;3.58;;
9334;SDS011;4706;41.844;26.082;2022-07-29T08:26:48;3.88;;;3.45;;
9334;SDS011;4706;41.844;26.082;2022-07-29T08:29:14;3.50;;;3.20;;
9334;SDS011;4706;41.844;26.082;2022-07-29T08:31:40;3.47;;;3.17;;
9334;SDS011;4706;41.844;26.082;2022-07-29T08:34:05;3.92;;;3.60;;
9334;SDS011;4706;41.844;26.082;2022-07-29T08:36:32;6.95;;;3.42;;
9334;SDS011;4706;41.844;26.082;2022-07-29T08:38:58;3.60;;;3.30;;
9334;SDS011;4706;41.844;26.082;2022-07-29T08:41:25;3.20;;;3.00;;
9334;SDS011;4706;41.844;26.082;2022-07-29T08:43:51;3.50;;;3.20;;
9334;SDS011;4706;41.844;26.082;2022-07-29T08:46:17;4.55;;;3.38;;
9334;SDS011;4706;41.844;26.082;2022-07-29T08:48:43;3.65;;;3.38;;
9334;SDS011;4706;41.844;26.082;2022-07-29T08:51:12;3.58;;;3.17;;
9334;SDS011;4706;41.844;26.082;2022-07-29T08:53:44;3.28;;;3.00;;
9334;SDS011;4706;41.844;26.082;2022-07-29T08:56:13;3.78;;;3.45;;
9334;SDS011;4706;41.844;26.082;2022-07-29T08:58:43;3.50;;;3.20;;
9334;SDS011;4706;41.844;26.082;2022-07-29T09:01:10;3.45;;;3.15;;
9334;SDS011;4706;41.844;26.082;2022-07-29T09:03:39;3.22;;;3.00;;
9334;SDS011;4706;41.844;26.082;2022-07-29T09:06:05;3.40;;;3.10;;
9334;SDS011;4706;41.844;26.082;2022-07-29T09:08:32;3.20;;;2.90;;
9334;SDS011;4706;41.844;26.082;2022-07-29T09:11:00;3.95;;;3.38;;
9334;SDS011;4706;41.844;26.082;2022-07-29T09:13:26;3.30;;;3.00;;
9334;SDS011;4706;41.844;26.082;2022-07-29T09:15:52;3.75;;;3.20;;
9334;SDS011;4706;41.844;26.082;2022-07-29T09:21:01;3.88;;;3.40;;
9334;SDS011;4706;41.844;26.082;2022-07-29T09:26:39;5.78;;;3.38;;
9334;SDS011;4706;41.844;26.082;2022-07-29T09:31:39;3.20;;;3.00;;
9334;SDS011;4706;41.844;26.082;2022-07-29T09:34:06;3.80;;;3.20;;
9334;SDS011;4706;41.844;26.082;2022-07-29T09:36:43;3.38;;;3.15;;
9334;SDS011;4706;41.844;26.082;2022-07-29T09:39:11;3.53;;;3.22;;
9334;SDS011;4706;41.844;26.082;2022-07-29T09:41:45;3.92;;;3.35;;
9334;SDS011;4706;41.844;26.082;2022-07-29T09:44:12;3.80;;;3.50;;
9334;SDS011;4706;41.844;26.082;2022-07-29T09:46:37;4.30;;;3.60;;
9334;SDS011;4706;41.844;26.082;2022-07-29T09:49:07;3.67;;;3.10;;
9334;SDS011;4706;41.844;26.082;2022-07-29T09:51:34;4.93;;;3.38;;
9334;SDS011;4706;41.844;26.082;2022-07-29T09:54:00;4.97;;;3.35;;
9334;SDS011;4706;41.844;26.082;2022-07-29T09:56:41;4.75;;;4.20;;
9334;SDS011;4706;41.844;26.082;2022-07-29T09:59:07;3.58;;;2.92;;
9334;SDS011;4706;41.844;26.082;2022-07-29T10:01:34;3.70;;;3.05;;
9334;SDS011;4706;41.844;26.082;2022-07-29T10:04:01;3.83;;;3.25;;
9334;SDS011;4706;41.844;26.082;2022-07-29T10:06:27;3.65;;;3.10;;
9334;SDS011;4706;41.844;26.082;2022-07-29T10:08:53;3.75;;;3.13;;
9334;SDS011;4706;41.844;26.082;2022-07-29T10:11:19;3.97;;;3.10;;
9334;SDS011;4706;41.844;26.082;2022-07-29T10:13:46;4.78;;;3.20;;
9334;SDS011;4706;41.844;26.082;2022-07-29T10:16:13;7.90;;;7.10;;
9334;SDS011;4706;41.844;26.082;2022-07-29T10:18:41;4.82;;;3.08;;
9334;SDS011;4706;41.844;26.082;2022-07-29T10:21:09;3.65;;;3.08;;
9334;SDS011;4706;41.844;26.082;2022-07-29T10:23:35;2.67;;;2.47;;
9334;SDS011;4706;41.844;26.082;2022-07-29T10:26:02;3.33;;;2.53;;
9334;SDS011;4706;41.844;26.082;2022-07-29T10:28:30;3.22;;;2.75;;
9334;SDS011;4706;41.844;26.082;2022-07-29T10:31:04;2.80;;;2.60;;
9334;SDS011;4706;41.844;26.082;2022-07-29T10:33:36;3.33;;;2.90;;
9334;SDS011;4706;41.844;26.082;2022-07-29T10:36:07;3.42;;;3.10;;
9334;SDS011;4706;41.844;26.082;2022-07-29T10:44:21;4.43;;;2.72;;
9334;SDS011;4706;41.844;26.082;2022-07-29T10:46:49;4.25;;;3.08;;
9334;SDS011;4706;41.844;26.082;2022-07-29T10:49:16;3.00;;;2.70;;
9334;SDS011;4706;41.844;26.082;2022-07-29T10:51:56;3.17;;;2.80;;
9334;SDS011;4706;41.844;26.082;2022-07-29T10:59:36;5.25;;;3.25;;
9334;SDS011;4706;41.844;26.082;2022-07-29T11:02:02;3.83;;;3.15;;
9334;SDS011;4706;41.844;26.082;2022-07-29T11:07:16;3.88;;;3.10;;
9334;SDS011;4706;41.844;26.082;2022-07-29T11:09:42;3.08;;;2.78;;
9334;SDS011;4706;41.844;26.082;2022-07-29T11:15:08;4.10;;;2.97;;
9334;SDS011;4706;41.844;26.082;2022-07-29T11:20:38;3.67;;;2.63;;
9334;SDS011;4706;41.844;26.082;2022-07-29T11:23:17;5.70;;;2.88;;
9334;SDS011;4706;41.844;26.082;2022-07-29T11:26:14;4.35;;;3.00;;
9334;SDS011;4706;41.844;26.082;2022-07-29T11:29:02;3.40;;;2.90;;
9334;SDS011;4706;41.844;26.082;2022-07-29T11:31:44;3.60;;;3.17;;
9334;SDS011;4706;41.844;26.082;2022-07-29T11:39:37;3.42;;;3.13;;
9334;SDS011;4706;41.844;26.082;2022-07-29T11:47:37;42.08;;;7.68;;
9334;SDS011;4706;41.844;26.082;2022-07-29T11:50:08;7.50;;;3.13;;
9334;SDS011;4706;41.844;26.082;2022-07-29T11:52:45;29.00;;;6.30;;
9334;SDS011;4706;41.844;26.082;2022-07-29T11:55:13;7.50;;;3.08;;
9334;SDS011;4706;41.844;26.082;2022-07-29T12:00:28;23.55;;;6.38;;
9334;SDS011;4706;41.844;26.082;2022-07-29T12:03:03;3.03;;;2.80;;
9334;SDS011;4706;41.844;26.082;2022-07-29T12:05:43;19.55;;;5.22;;
9334;SDS011;4706;41.844;26.082;2022-07-29T12:08:14;3.05;;;2.85;;
9334;SDS011;4706;41.844;26.082;2022-07-29T12:10:44;3.10;;;2.90;;
9334;SDS011;4706;41.844;26.082;2022-07-29T12:13:12;3.97;;;2.78;;
9334;SDS011;4706;41.844;26.082;2022-07-29T12:15:40;2.90;;;2.70;;
9334;SDS011;4706;41.844;26.082;2022-07-29T12:18:09;3.72;;;2.83;;
9334;SDS011;4706;41.844;26.082;2022-07-29T12:20:45;7.60;;;3.58;;
9334;SDS011;4706;41.844;26.082;2022-07-29T12:23:11;3.45;;;3.03;;
9334;SDS011;4706;41.844;26.082;2022-07-29T12:25:39;9.18;;;3.90;;
9334;SDS011;4706;41.844;26.082;2022-07-29T12:28:07;8.27;;;3.85;;
9334;SDS011;4706;41.844;26.082;2022-07-29T12:30:55;3.20;;;2.90;;
9334;SDS011;4706;41.844;26.082;2022-07-29T12:35:54;3.30;;;2.78;;
9334;SDS011;4706;41.844;26.082;2022-07-29T12:38:24;2.97;;;2.58;;
9334;SDS011;4706;41.844;26.082;2022-07-29T12:40:51;3.97;;;2.72;;
9334;SDS011;4706;41.844;26.082;2022-07-29T12:43:19;4.65;;;3.15;;
9334;SDS011;4706;41.844;26.082;2022-07-29T12:45:55;9.95;;;3.65;;
9334;SDS011;4706;41.844;26.082;2022-07-29T12:48:41;3.33;;;2.72;;
9334;SDS011;4706;41.844;26.082;2022-07-29T12:51:08;3.78;;;3.03;;
9334;SDS011;4706;41.844;26.082;2022-07-29T12:53:35;3.05;;;2.58;;
9334;SDS011;4706;41.844;26.082;2022-07-29T12:56:02;4.20;;;3.35;;
9334;SDS011;4706;41.844;26.082;2022-07-29T12:58:36;3.47;;;3.17;;
9334;SDS011;4706;41.844;26.082;2022-07-29T13:01:14;3.20;;;2.90;;
9334;SDS011;4706;41.844;26.082;2022-07-29T13:03:46;5.32;;;2.70;;
9334;SDS011;4706;41.844;26.082;2022-07-29T13:09:09;5.07;;;3.00;;
9334;SDS011;4706;41.844;26.082;2022-07-29T13:14:10;6.43;;;3.15;;
9334;SDS011;4706;41.844;26.082;2022-07-29T13:16:59;3.47;;;2.95;;
9334;SDS011;4706;41.844;26.082;2022-07-29T13:19:33;3.20;;;2.95;;
9334;SDS011;4706;41.844;26.082;2022-07-29T13:22:09;3.35;;;3.05;;
9334;SDS011;4706;41.844;26.082;2022-07-29T13:27:23;3.55;;;2.83;;
9334;SDS011;4706;41.844;26.082;2022-07-29T13:29:51;3.80;;;3.05;;
9334;SDS011;4706;41.844;26.082;2022-07-29T13:32:18;7.60;;;2.92;;
9334;SDS011;4706;41.844;26.082;2022-07-29T13:34:45;3.63;;;3.33;;
9334;SDS011;4706;41.844;26.082;2022-07-29T13:37:11;4.10;;;2.80;;
9334;SDS011;4706;41.844;26.082;2022-07-29T13:39:36;6.15;;;2.80;;
9334;SDS011;4706;41.844;26.082;2022-07-29T13:42:03;5.68;;;3.05;;
9334;SDS011;4706;41.844;26.082;2022-07-29T13:44:29;4.47;;;2.85;;
9334;SDS011;4706;41.844;26.082;2022-07-29T13:46:55;2.78;;;2.40;;
9334;SDS011;4706;41.844;26.082;2022-07-29T13:49:21;6.47;;;3.03;;
9334;SDS011;4706;41.844;26.082;2022-07-29T13:51:48;4.25;;;2.80;;
9334;SDS011;4706;41.844;26.082;2022-07-29T13:54:14;3.25;;;2.60;;
9334;SDS011;4706;41.844;26.082;2022-07-29T13:56:40;5.55;;;2.80;;
9334;SDS011;4706;41.844;26.082;2022-07-29T13:59:06;3.63;;;3.00;;
9334;SDS011;4706;41.844;26.082;2022-07-29T14:01:36;3.40;;;3.10;;
9334;SDS011;4706;41.844;26.082;2022-07-29T14:04:03;3.40;;;2.80;;
9334;SDS011;4706;41.844;26.082;2022-07-29T14:06:28;4.03;;;2.70;;
9334;SDS011;4706;41.844;26.082;2022-07-29T14:08:54;5.65;;;2.70;;
9334;SDS011;4706;41.844;26.082;2022-07-29T14:11:20;3.15;;;2.75;;
9334;SDS011;4706;41.844;26.082;2022-07-29T14:13:45;3.05;;;2.67;;
9334;SDS011;4706;41.844;26.082;2022-07-29T14:16:11;3.45;;;2.72;;
9334;SDS011;4706;41.844;26.082;2022-07-29T14:18:37;5.45;;;2.90;;
9334;SDS011;4706;41.844;26.082;2022-07-29T14:21:02;3.22;;;2.92;;
9334;SDS011;4706;41.844;26.082;2022-07-29T14:23:28;3.30;;;2.80;;
9334;SDS011;4706;41.844;26.082;2022-07-29T14:25:53;3.83;;;2.90;;
9334;SDS011;4706;41.844;26.082;2022-07-29T14:28:19;3.50;;;2.90;;
9334;SDS011;4706;41.844;26.082;2022-07-29T14:30:45;3.42;;;2.50;;
9334;SDS011;4706;41.844;26.082;2022-07-29T14:33:10;4.25;;;2.35;;
9334;SDS011;4706;41.844;26.082;2022-07-29T14:35:36;3.70;;;2.70;;
9334;SDS011;4706;41.844;26.082;2022-07-29T14:38:02;2.85;;;2.65;;
9334;SDS011;4706;41.844;26.082;2022-07-29T14:40:28;4.50;;;2.30;;
9334;SDS011;4706;41.844;26.082;2022-07-29T14:42:54;3.22;;;2.75;;
9334;SDS011;4706;41.844;26.082;2022-07-29T14:45:19;3.05;;;2.63;;
9334;SDS011;4706;41.844;26.082;2022-07-29T14:47:45;5.10;;;2.70;;
9334;SDS011;4706;41.844;26.082;2022-07-29T14:50:11;6.07;;;2.92;;
9334;SDS011;4706;41.844;26.082;2022-07-29T14:52:37;2.90;;;2.60;;
9334;SDS011;4706;41.844;26.082;2022-07-29T14:55:03;4.25;;;2.50;;
9334;SDS011;4706;41.844;26.082;2022-07-29T14:57:29;2.60;;;2.40;;
9334;SDS011;4706;41.844;26.082;2022-07-29T14:59:58;5.55;;;3.00;;
9334;SDS011;4706;41.844;26.082;2022-07-29T15:02:24;5.50;;;2.78;;
9334;SDS011;4706;41.844;26.082;2022-07-29T15:04:49;3.08;;;2.63;;
9334;SDS011;4706;41.844;26.082;2022-07-29T15:07:15;2.63;;;2.35;;
9334;SDS011;4706;41.844;26.082;2022-07-29T15:09:41;2.95;;;2.50;;
9334;SDS011;4706;41.844;26.082;2022-07-29T15:12:07;3.03;;;2.42;;
9334;SDS011;4706;41.844;26.082;2022-07-29T15:14:33;3.00;;;2.80;;
9334;SDS011;4706;41.844;26.082;2022-07-29T15:16:58;4.38;;;2.60;;
9334;SDS011;4706;41.844;26.082;2022-07-29T15:19:24;5.32;;;2.83;;
9334;SDS011;4706;41.844;26.082;2022-07-29T15:21:50;2.85;;;2.60;;
9334;SDS011;4706;41.844;26.082;2022-07-29T15:24:16;2.90;;;2.70;;
9334;SDS011;4706;41.844;26.082;2022-07-29T15:26:42;3.00;;;2.80;;
9334;SDS011;4706;41.844;26.082;2022-07-29T15:29:08;2.95;;;2.60;;
9334;SDS011;4706;41.844;26.082;2022-07-29T15:31:33;2.88;;;2.67;;
9334;SDS011;4706;41.844;26.082;2022-07-29T15:33:59;3.28;;;3.00;;
9334;SDS011;4706;41.844;26.082;2022-07-29T15:36:24;3.00;;;2.75;;
9334;SDS011;4706;41.844;26.082;2022-07-29T15:38:51;6.43;;;3.05;;
9334;SDS011;4706;41.844;26.082;2022-07-29T15:41:18;4.05;;;3.22;;
9334;SDS011;4706;41.844;26.082;2022-07-29T15:43:46;4.35;;;3.38;;
9334;SDS011;4706;41.844;26.082;2022-07-29T15:46:16;2.88;;;2.67;;
9334;SDS011;4706;41.844;26.082;2022-07-29T15:49:01;3.10;;;2.80;;
9334;SDS011;4706;41.844;26.082;2022-07-29T15:51:28;4.25;;;3.00;;
9334;SDS011;4706;41.844;26.082;2022-07-29T15:53:53;2.92;;;2.72;;
9334;SDS011;4706;41.844;26.082;2022-07-29T15:56:19;3.55;;;2.85;;
9334;SDS011;4706;41.844;26.082;2022-07-29T15:58:44;3.28;;;3.03;;
9334;SDS011;4706;41.844;26.082;2022-07-29T16:01:10;3.50;;;3.20;;
9334;SDS011;4706;41.844;26.082;2022-07-29T16:03:36;5.78;;;3.10;;
9334;SDS011;4706;41.844;26.082;2022-07-29T16:06:01;4.63;;;3.25;;
9334;SDS011;4706;41.844;26.082;2022-07-29T16:08:27;4.55;;;3.47;;
9334;SDS011;4706;41.844;26.082;2022-07-29T16:10:53;3.85;;;3.10;;
9334;SDS011;4706;41.844;26.082;2022-07-29T16:13:18;3.67;;;3.38;;
9334;SDS011;4706;41.844;26.082;2022-07-29T16:15:44;3.80;;;3.33;;